createdAt,value
2018-09-12T00:00:58.402Z,100369.76
2018-09-12T00:04:02.918Z,100369.63
2018-09-12T00:07:07.677Z,100365.80
2018-09-12T00:10:12.223Z,100361.98
2018-09-12T00:13:16.777Z,100356.22
2018-09-12T00:16:21.235Z,100359.98
2018-09-12T00:19:25.799Z,100357.61
2018-09-12T00:22:30.349Z,100352.83
2018-09-12T00:25:34.895Z,100357.38
2018-09-12T00:28:39.395Z,100348.84
2018-09-12T00:31:43.961Z,100344.71
2018-09-12T00:34:48.510Z,100347.09
2018-09-12T00:37:53.034Z,100344.71
2018-09-12T00:40:57.564Z,100336.94
2018-09-12T00:44:02.097Z,100340.58
2018-09-12T00:47:06.734Z,100339.23
2018-09-12T00:50:11.231Z,100332.70
2018-09-12T00:53:15.787Z,100333.22
2018-09-12T00:56:20.360Z,100335.07
2018-09-12T00:59:24.820Z,100332.49
2018-09-12T01:02:29.312Z,100345.92
2018-09-12T01:05:33.947Z,100341.96
2018-09-12T01:08:38.363Z,100338.11
2018-09-12T01:11:42.832Z,100338.53
2018-09-12T01:14:47.369Z,100341.13
2018-09-12T01:17:51.833Z,100340.31
2018-09-12T01:20:56.289Z,100341.03
2018-09-12T01:24:00.807Z,100335.75
2018-09-12T01:27:05.494Z,100334.59
2018-09-12T01:30:14.085Z,100334.70
2018-09-12T01:33:18.524Z,100339.59
2018-09-12T01:36:23.007Z,100339.25
2018-09-12T01:39:27.443Z,100335.95
2018-09-12T01:42:31.933Z,100327.33
2018-09-12T01:45:36.469Z,100329.59
2018-09-12T01:48:40.865Z,100324.40
2018-09-12T01:51:45.943Z,100323.68
2018-09-12T01:54:50.378Z,100320.68
2018-09-12T01:57:55.005Z,100326.70
2018-09-12T02:00:59.459Z,100319.02
2018-09-12T02:04:03.927Z,100324.93
2018-09-12T02:07:08.474Z,100319.52
2018-09-12T02:10:13.641Z,100320.64
2018-09-12T02:13:18.322Z,100324.17
2018-09-12T02:16:22.992Z,100323.95
2018-09-12T02:19:27.413Z,100317.92
2018-09-12T02:22:32.031Z,100309.74
2018-09-12T02:25:36.513Z,100310.84
2018-09-12T02:28:41.044Z,100321.03
2018-09-12T02:31:45.608Z,100312.63
2018-09-12T02:34:50.090Z,100310.95
2018-09-12T02:37:54.556Z,100301.32
2018-09-12T02:40:59.066Z,100308.03
2018-09-12T02:44:03.552Z,100309.04
2018-09-12T02:47:12.944Z,100300.65
2018-09-12T02:50:17.420Z,100309.86
2018-09-12T02:53:21.872Z,100308.52
2018-09-12T02:56:26.410Z,100303.38
2018-09-12T02:59:30.895Z,100302.41
2018-09-12T03:02:35.312Z,100298.48
2018-09-12T03:05:39.772Z,100298.88
2018-09-12T03:08:44.255Z,100290.53
2018-09-12T03:11:48.756Z,100294.58
2018-09-12T03:14:53.340Z,100288.43
2018-09-12T03:17:57.864Z,100291.21
2018-09-12T03:21:02.515Z,100290.53
2018-09-12T03:24:07.150Z,100287.45
2018-09-12T03:27:11.615Z,100291.36
2018-09-12T03:30:16.057Z,100286.75
2018-09-12T03:33:20.529Z,100287.16
2018-09-12T03:36:25.051Z,100285.09
2018-09-12T03:39:29.551Z,100283.66
2018-09-12T03:42:34.019Z,100284.64
2018-09-12T03:45:38.490Z,100285.52
2018-09-12T03:48:43.005Z,100286.30
2018-09-12T03:51:47.476Z,100284.45
2018-09-12T03:54:52.007Z,100284.34
2018-09-12T03:57:56.550Z,100289.02
2018-09-12T04:01:00.931Z,100287.63
2018-09-12T04:04:05.520Z,100286.91
2018-09-12T04:07:09.999Z,100286.81
2018-09-12T04:10:14.623Z,100279.48
2018-09-12T04:13:19.224Z,100277.58
2018-09-12T04:16:23.667Z,100285.46
2018-09-12T04:19:28.208Z,100276.42
2018-09-12T04:22:33.151Z,100277.37
2018-09-12T04:25:37.681Z,100274.16
2018-09-12T04:28:42.852Z,100275.63
2018-09-12T04:31:47.511Z,100276.19
2018-09-12T04:34:51.974Z,100281.46
2018-09-12T04:37:56.439Z,100283.63
2018-09-12T04:41:00.910Z,100278.23
2018-09-12T04:44:05.366Z,100278.87
2018-09-12T04:47:09.883Z,100283.70
2018-09-12T04:50:14.349Z,100280.52
2018-09-12T04:53:18.831Z,100278.06
2018-09-12T04:56:23.281Z,100283.98
2018-09-12T04:59:27.699Z,100277.59
2018-09-12T05:02:32.170Z,100284.61
2018-09-12T05:05:36.776Z,100279.45
2018-09-12T05:08:41.317Z,100284.33
2018-09-12T05:11:45.950Z,100279.00
2018-09-12T05:14:50.388Z,100284.42
2018-09-12T05:17:55.088Z,100275.39
2018-09-12T05:20:59.581Z,100276.02
2018-09-12T05:24:04.049Z,100275.56
2018-09-12T05:27:08.557Z,100277.18
2018-09-12T05:30:13.152Z,100282.16
2018-09-12T05:33:17.765Z,100283.75
2018-09-12T05:36:22.264Z,100285.63
2018-09-12T05:39:26.691Z,100284.78
2018-09-12T05:42:31.222Z,100283.45
2018-09-12T05:45:35.746Z,100286.69
2018-09-12T05:48:40.185Z,100281.00
2018-09-12T05:51:44.894Z,100280.27
2018-09-12T05:54:49.408Z,100281.91
2018-09-12T05:57:53.893Z,100287.41
2018-09-12T06:00:58.371Z,100277.94
2018-09-12T06:04:02.911Z,100284.50
2018-09-12T06:07:07.516Z,100292.50
2018-09-12T06:10:11.846Z,100284.61
2018-09-12T06:13:16.312Z,100281.14
2018-09-12T06:16:20.879Z,100284.80
2018-09-12T06:19:25.417Z,100286.70
2018-09-12T06:22:29.935Z,100278.29
2018-09-12T06:25:34.353Z,100279.77
2018-09-12T06:28:38.896Z,100283.25
2018-09-12T06:31:43.374Z,100275.30
2018-09-12T06:34:47.864Z,100267.41
2018-09-12T06:37:52.598Z,100259.19
2018-09-12T06:40:57.063Z,100260.24
2018-09-12T06:44:01.559Z,100266.49
2018-09-12T06:47:06.188Z,100263.65
2018-09-12T06:50:10.688Z,100268.70
2018-09-12T06:53:15.279Z,100266.53
2018-09-12T06:56:19.802Z,100270.70
2018-09-12T06:59:24.318Z,100263.35
2018-09-12T07:02:28.878Z,100263.18
2018-09-12T07:05:33.505Z,100262.35
2018-09-12T07:08:38.036Z,100254.32
2018-09-12T07:11:42.548Z,100259.56
2018-09-12T07:14:47.021Z,100252.62
2018-09-12T07:17:51.790Z,100255.95
2018-09-12T07:20:56.228Z,100252.87
2018-09-12T07:24:00.763Z,100260.66
2018-09-12T07:27:05.330Z,100260.74
2018-09-12T07:30:09.846Z,100258.48
2018-09-12T07:33:14.297Z,100258.41
2018-09-12T07:36:18.828Z,100258.77
2018-09-12T07:39:23.277Z,100263.62
2018-09-12T07:42:27.818Z,100259.55
2018-09-12T07:45:32.236Z,100257.80
2018-09-12T07:48:36.762Z,100247.30
2018-09-12T07:51:41.215Z,100244.14
2018-09-12T07:54:45.641Z,100250.87
2018-09-12T07:57:50.108Z,100249.96
2018-09-12T08:00:54.688Z,100251.89
2018-09-12T08:03:59.217Z,100248.17
2018-09-12T08:07:03.708Z,100244.58
2018-09-12T08:10:08.387Z,100241.43
2018-09-12T08:13:12.850Z,100238.12
2018-09-12T08:16:17.350Z,100238.19
2018-09-12T08:19:21.741Z,100241.49
2018-09-12T08:22:26.235Z,100242.09
2018-09-12T08:25:30.767Z,100237.87
2018-09-12T08:28:35.314Z,100238.84
2018-09-12T08:31:39.832Z,100237.45
2018-09-12T08:34:44.305Z,100235.16
2018-09-12T08:37:48.805Z,100231.62
2018-09-12T08:40:53.355Z,100231.59
2018-09-12T08:43:57.895Z,100232.70
2018-09-12T08:47:02.348Z,100228.58
2018-09-12T08:50:07.756Z,100217.31
2018-09-12T08:53:12.147Z,100216.22
2018-09-12T08:56:16.600Z,100218.38
2018-09-12T08:59:21.032Z,100209.69
2018-09-12T09:02:25.492Z,100210.73
2018-09-12T09:05:30.265Z,100209.63
2018-09-12T09:08:34.705Z,100207.61
2018-09-12T09:11:39.254Z,100203.80
2018-09-12T09:14:43.693Z,100200.19
2018-09-12T09:17:48.219Z,100196.12
2018-09-12T09:20:52.675Z,100189.72
2018-09-12T09:23:57.223Z,100188.19
2018-09-12T09:27:01.669Z,100188.12
2018-09-12T09:30:07.115Z,100183.73
2018-09-12T09:33:11.551Z,100184.55
2018-09-12T09:36:16.059Z,100179.51
2018-09-12T09:39:20.500Z,100173.45
2018-09-12T09:42:24.999Z,100174.47
2018-09-12T09:45:29.605Z,100170.02
2018-09-12T09:48:34.025Z,100161.57
2018-09-12T09:51:38.515Z,100163.67
2018-09-12T09:54:43.011Z,100167.61
2018-09-12T09:57:47.476Z,100155.75
2018-09-12T10:00:57.006Z,100146.11
2018-09-12T10:04:06.827Z,100151.98
2018-09-12T10:07:16.358Z,100145.31
2018-09-12T10:10:20.773Z,100137.68
2018-09-12T10:13:25.279Z,100131.53
2018-09-12T10:16:29.785Z,100126.15
2018-09-12T10:19:34.476Z,100121.45
2018-09-12T10:22:39.122Z,100118.80
2018-09-12T10:25:43.586Z,100117.34
2018-09-12T10:28:48.071Z,100112.78
2018-09-12T10:31:52.606Z,100102.73
2018-09-12T10:34:57.146Z,100101.04
2018-09-12T10:38:01.609Z,100097.70
2018-09-12T10:41:06.330Z,100096.55
2018-09-12T10:44:10.742Z,100093.47
2018-09-12T10:47:15.212Z,100083.28
2018-09-12T10:50:19.690Z,100084.93
2018-09-12T10:53:25.052Z,100088.61
2018-09-12T10:56:29.526Z,100092.20
2018-09-12T10:59:34.321Z,100082.65
2018-09-12T11:02:38.836Z,100075.30
2018-09-12T11:05:43.382Z,100073.58
2018-09-12T11:08:47.864Z,100068.06
2018-09-12T11:11:52.390Z,100075.88
2018-09-12T11:14:56.983Z,100071.33
2018-09-12T11:18:01.411Z,100069.47
2018-09-12T11:21:06.021Z,100061.53
2018-09-12T11:24:10.561Z,100062.66
2018-09-12T11:27:15.227Z,100055.81
2018-09-12T11:30:19.693Z,100053.39
2018-09-12T11:33:24.360Z,100052.59
2018-09-12T11:36:28.829Z,100047.18
2018-09-12T11:39:33.531Z,100043.61
2018-09-12T11:42:38.167Z,100057.94
2018-09-12T11:45:42.774Z,100043.91
2018-09-12T11:48:47.320Z,100042.91
2018-09-12T11:51:51.881Z,100030.22
2018-09-12T11:54:56.421Z,100033.64
2018-09-12T11:58:00.884Z,100027.86
2018-09-12T12:01:05.500Z,100023.98
2018-09-12T12:04:10.077Z,100016.87
2018-09-12T12:07:14.634Z,100008.19
2018-09-12T12:10:19.143Z,100018.50
2018-09-12T12:13:23.688Z,100005.61
2018-09-12T12:16:28.202Z,100003.30
2018-09-12T12:19:32.701Z,99994.25
2018-09-12T12:22:37.203Z,99989.02
2018-09-12T12:25:41.646Z,99990.28
2018-09-12T12:28:46.176Z,99984.24
2018-09-12T12:31:50.835Z,99976.88
2018-09-12T12:34:55.452Z,99970.31
2018-09-12T12:38:00.013Z,99968.25
2018-09-12T12:41:04.530Z,99963.34
2018-09-12T12:44:09.012Z,99967.73
2018-09-12T12:47:13.596Z,99965.58
2018-09-12T12:50:18.036Z,99953.08
2018-09-12T12:53:22.550Z,99941.02
2018-09-12T12:56:27.070Z,99937.28
2018-09-12T12:59:31.906Z,99934.13
2018-09-12T13:02:36.364Z,99946.41
2018-09-12T13:05:40.906Z,99938.92
2018-09-12T13:08:45.364Z,99922.04
2018-09-12T13:11:49.854Z,99921.49
2018-09-12T13:14:54.615Z,99912.48
2018-09-12T13:17:59.144Z,99909.05
2018-09-12T13:21:03.739Z,99909.46
2018-09-12T13:24:08.191Z,99906.48
2018-09-12T13:27:12.823Z,99905.72
2018-09-12T13:30:17.300Z,99915.72
2018-09-12T13:33:21.766Z,99912.03
2018-09-12T13:36:26.401Z,99900.73
2018-09-12T13:39:31.290Z,99894.74
2018-09-12T13:42:49.660Z,99891.56
2018-09-12T13:45:56.235Z,99895.97
2018-09-12T13:52:22.088Z,99904.88
2018-09-12T13:55:26.618Z,99890.12
2018-09-12T13:58:31.195Z,99886.90
2018-09-12T14:01:35.756Z,99885.16
2018-09-12T14:04:40.370Z,99889.25
2018-09-12T14:07:44.965Z,99890.72
2018-09-12T14:10:49.492Z,99883.41
2018-09-12T14:13:54.159Z,99887.95
2018-09-12T14:16:58.630Z,99888.95
2018-09-12T14:20:03.147Z,99877.25
2018-09-12T14:23:07.708Z,99886.44
2018-09-12T14:26:12.868Z,99883.52
2018-09-12T14:29:17.484Z,99873.77
2018-09-12T14:32:21.995Z,99868.78
2018-09-12T14:35:26.529Z,99871.34
2018-09-12T14:38:31.130Z,99866.13
2018-09-12T14:41:35.858Z,99866.84
2018-09-12T14:44:40.363Z,99861.85
2018-09-12T14:47:44.884Z,99851.48
2018-09-12T14:50:49.472Z,99851.48
2018-09-12T14:53:54.103Z,99856.14
2018-09-12T14:56:58.600Z,99852.44
2018-09-12T15:00:03.189Z,99852.66
2018-09-12T15:03:07.694Z,99847.45
2018-09-12T15:06:12.252Z,99840.48
2018-09-12T15:09:16.956Z,99834.81
2018-09-12T15:12:21.480Z,99830.98
2018-09-12T15:15:25.980Z,99829.72
2018-09-12T15:18:30.500Z,99828.80
2018-09-12T15:21:34.997Z,99819.30
2018-09-12T15:24:39.574Z,99819.78
2018-09-12T15:27:44.046Z,99820.22
2018-09-12T15:30:48.518Z,99824.17
2018-09-12T15:33:53.012Z,99827.38
2018-09-12T15:36:57.505Z,99829.98
2018-09-12T15:40:01.958Z,99828.09
2018-09-12T15:43:06.870Z,99822.28
2018-09-12T15:46:11.360Z,99818.59
2018-09-12T15:49:15.982Z,99825.95
2018-09-12T15:52:20.499Z,99824.73
2018-09-12T15:55:25.023Z,99817.82
2018-09-12T15:58:29.524Z,99817.38
2018-09-12T16:01:33.985Z,99819.79
2018-09-12T16:04:38.530Z,99817.66
2018-09-12T16:07:43.159Z,99822.39
2018-09-12T16:10:47.725Z,99818.46
2018-09-12T16:13:52.246Z,99812.77
2018-09-12T16:16:56.780Z,99806.59
2018-09-12T16:20:01.215Z,99814.45
2018-09-12T16:23:05.804Z,99807.56
2018-09-12T16:26:27.950Z,99807.84
2018-09-12T16:29:51.844Z,99803.41
2018-09-12T16:32:56.523Z,99807.62
2018-09-12T16:36:03.673Z,99808.34
2018-09-12T16:39:13.492Z,99799.86
2018-09-12T16:42:18.163Z,99795.72
2018-09-12T16:45:22.666Z,99800.21
2018-09-12T16:48:27.227Z,99793.55
2018-09-12T16:51:31.817Z,99787.06
2018-09-12T16:54:36.327Z,99790.04
2018-09-12T16:57:40.847Z,99797.31
2018-09-12T17:00:45.571Z,99794.11
2018-09-12T17:03:50.071Z,99796.73
2018-09-12T17:06:54.876Z,99794.38
2018-09-12T17:09:59.433Z,99801.00
2018-09-12T17:13:03.899Z,99801.34
2018-09-12T17:16:08.538Z,99800.94
2018-09-12T17:19:13.210Z,99804.03
2018-09-12T17:22:17.707Z,99798.62
2018-09-12T17:25:22.222Z,99806.95
2018-09-12T17:28:26.985Z,99801.57
2018-09-12T17:31:31.506Z,99803.91
2018-09-12T17:34:36.044Z,99803.31
2018-09-12T17:37:40.623Z,99802.94
2018-09-12T17:40:45.133Z,99804.24
2018-09-12T17:43:49.804Z,99812.27
2018-09-12T17:46:54.325Z,99813.16
2018-09-12T17:49:59.096Z,99820.92
2018-09-12T17:53:03.796Z,99813.02
2018-09-12T17:56:08.374Z,99815.44
2018-09-12T17:59:12.850Z,99819.22
2018-09-12T18:02:17.379Z,99822.98
2018-09-12T18:05:21.899Z,99821.08
2018-09-12T18:08:26.457Z,99831.11
2018-09-12T18:11:31.103Z,99827.69
2018-09-12T18:14:35.690Z,99837.17
2018-09-12T18:17:40.324Z,99842.38
2018-09-12T18:20:44.953Z,99841.70
2018-09-12T18:23:49.581Z,99842.35
2018-09-12T18:26:54.168Z,99845.52
2018-09-12T18:29:58.769Z,99855.03
2018-09-12T18:33:03.879Z,99850.12
2018-09-12T18:36:08.953Z,99860.62
2018-09-12T18:39:13.936Z,99855.70
2018-09-12T18:42:18.548Z,99862.38
2018-09-12T18:45:23.090Z,99858.05
2018-09-12T18:48:27.746Z,99862.70
2018-09-12T18:51:33.016Z,99863.61
2018-09-12T18:54:37.713Z,99867.19
2018-09-12T18:57:42.367Z,99869.67
2018-09-12T19:00:46.971Z,99873.56
2018-09-12T19:03:51.614Z,99873.84
2018-09-12T19:06:56.315Z,99869.73
2018-09-12T19:10:00.741Z,99875.50
2018-09-12T19:13:05.374Z,99873.58
2018-09-12T19:16:09.904Z,99880.98
2018-09-12T19:19:14.639Z,99884.58
2018-09-12T19:22:19.156Z,99878.52
2018-09-12T19:25:23.731Z,99881.25
2018-09-12T19:28:28.272Z,99884.00
2018-09-12T19:31:32.942Z,99886.17
2018-09-12T19:34:37.606Z,99888.34
2018-09-12T19:37:42.121Z,99894.35
2018-09-12T19:40:46.839Z,99896.04
2018-09-12T19:43:51.448Z,99894.93
2018-09-12T19:46:56.097Z,99888.09
2018-09-12T19:50:00.740Z,99896.55
2018-09-12T19:53:05.267Z,99896.55
2018-09-12T19:56:10.516Z,99896.50
2018-09-12T19:59:15.302Z,99898.69
2018-09-12T20:02:33.133Z,99899.25
2018-09-12T20:05:38.063Z,99903.66
2018-09-12T20:08:42.562Z,99906.91
2018-09-12T20:11:47.096Z,99904.99
2018-09-12T20:14:52.373Z,99903.91
2018-09-12T20:17:56.936Z,99906.85
2018-09-12T20:21:01.437Z,99922.03
2018-09-12T20:24:06.150Z,99918.42
2018-09-12T20:27:11.051Z,99919.25
2018-09-12T20:30:18.013Z,99920.29
2018-09-12T20:33:22.652Z,99919.42
2018-09-12T20:36:27.413Z,99920.17
2018-09-12T20:39:32.025Z,99926.41
2018-09-12T20:42:36.561Z,99928.08
2018-09-12T20:45:41.240Z,99929.28
2018-09-12T20:48:45.870Z,99924.02
2018-09-12T20:51:50.367Z,99930.44
2018-09-12T20:54:55.023Z,99929.53
2018-09-12T20:57:59.505Z,99931.55
2018-09-12T21:01:04.032Z,99937.20
2018-09-12T21:04:08.703Z,99938.16
2018-09-12T21:07:13.189Z,99936.52
2018-09-12T21:10:17.709Z,99934.30
2018-09-12T21:13:22.320Z,99937.20
2018-09-12T21:16:26.861Z,99937.53
2018-09-12T21:19:31.407Z,99933.42
2018-09-12T21:22:36.132Z,99934.09
2018-09-12T21:25:40.671Z,99944.04
2018-09-12T21:28:45.167Z,99945.34
2018-09-12T21:31:49.687Z,99940.10
2018-09-12T21:34:54.357Z,99941.73
2018-09-12T21:37:58.883Z,99940.92
2018-09-12T21:41:03.672Z,99950.88
2018-09-12T21:44:08.351Z,99942.98
2018-09-12T21:47:12.853Z,99947.69
2018-09-12T21:50:17.505Z,99941.69
2018-09-12T21:53:21.984Z,99947.07
2018-09-12T21:56:26.413Z,99942.91
2018-09-12T21:59:30.986Z,99947.44
2018-09-12T22:02:35.666Z,99942.84
2018-09-12T22:05:40.263Z,99950.09
2018-09-12T22:08:44.815Z,99948.02
2018-09-12T22:11:49.361Z,99955.06
2018-09-12T22:14:53.818Z,99949.34
2018-09-12T22:17:58.302Z,99948.66
2018-09-12T22:21:02.752Z,99953.24
2018-09-12T22:24:07.318Z,99951.53
2018-09-12T22:27:11.923Z,99952.73
2018-09-12T22:30:16.442Z,99951.58
2018-09-12T22:33:21.052Z,99957.05
2018-09-12T22:36:25.503Z,99951.38
2018-09-12T22:39:30.104Z,99955.11
2018-09-12T22:42:34.601Z,99957.40
2018-09-12T22:45:39.101Z,99959.22
2018-09-12T22:48:43.569Z,99968.38
2018-09-12T22:51:48.045Z,99965.88
2018-09-12T22:54:52.560Z,99969.16
2018-09-12T22:57:57.038Z,99967.75
2018-09-12T23:01:01.497Z,99975.05
2018-09-12T23:04:06.079Z,99969.05
2018-09-12T23:07:10.513Z,99972.36
2018-09-12T23:10:15.196Z,99973.99
2018-09-12T23:13:19.676Z,99970.20
2018-09-12T23:16:24.176Z,99972.42
2018-09-12T23:19:28.765Z,99972.98
2018-09-12T23:22:33.234Z,99970.42
2018-09-12T23:25:37.757Z,99975.39
2018-09-12T23:28:42.279Z,99974.32
2018-09-12T23:31:46.767Z,99980.74
2018-09-12T23:34:51.200Z,99972.30
2018-09-12T23:37:55.917Z,99971.56
2018-09-12T23:41:00.412Z,99953.52
2018-09-12T23:44:05.226Z,99947.03
2018-09-12T23:47:09.671Z,99943.08
2018-09-12T23:50:14.263Z,99943.17
2018-09-12T23:53:18.942Z,99944.42
2018-09-12T23:56:23.397Z,99941.63
2018-09-12T23:59:27.914Z,99949.82
